Happy Valentine's Day! 

Flight Track Log - Related Links

Times and Time Zones

All times are in EDT time to prevent confusion due to time zone crossing. See the N26572 flight status page for this flight to view local times or setup timezone preferences in your user account.


Time Position Orientation Groundspeed Altitude Reporting Facility
EDT Latitude Longitude Course Direction KTS MPH feet Rate Location/Type
Wed 03:17:33 PM 38.3108 -76.5814 254° West 107 123 900  Level Washington Center
Wed 03:18:16 PM 38.3044 -76.6103 254° West 114 131 1,500 840 Climbing Washington Center
Wed 03:19:13 PM 38.2833 -76.6444 232° Southwest 126 145 2,300 720 Climbing Washington Center
Wed 03:20:21 PM 38.2497 -76.6678 209° Southwest 133 153 3,000 617 Climbing Washington Center
Wed 03:21:00 PM 38.2267 -76.6806 204° Southwest 139 160 3,400 606 Climbing Washington Center
Wed 03:22:00 PM 38.2036 -76.7067 222° Southwest 144 166 4,000 605 Climbing Washington Center
Wed 03:22:59 PM 38.1761 -76.7408 224° Southwest 139 160 4,600 650 Climbing Washington Center
Wed 03:24:00 PM 38.1547 -76.7772 233° Southwest 134 154 5,300 639 Climbing Washington Center
Wed 03:25:01 PM 38.1214 -76.7953 203° Southwest 134 154 5,900 610 Climbing Washington Center
Wed 03:25:58 PM 38.0878 -76.8081 197° South 128 147 6,500 508 Climbing Washington Center
Wed 03:26:59 PM 38.0522 -76.8206 195° South 134 154 6,900 541 Climbing Washington Center
Wed 03:28:00 PM 38.0167 -76.8306 192° South 134 154 7,600 639 Climbing Washington Center
Wed 03:29:01 PM 37.9831 -76.8431 196° South 134 154 8,200 605 Climbing Washington Center
Wed 03:29:59 PM 37.9600 -76.8692 222° Southwest 122 140 8,800 555 Climbing Washington Center
Wed 03:31:00 PM 37.9511 -76.9086 254° West 117 135 9,300 397 Climbing Washington Center
Wed 03:32:00 PM 37.9403 -76.9503 252° West 123 142 9,600 403 Climbing Washington Center
Wed 03:32:59 PM 37.9314 -76.9897 254° West 128 147 10,100 252 Climbing Washington Center
Wed 03:33:59 PM 37.9183 -77.0369 251° West 128 147 10,100  Level Washington Center
Wed 03:34:59 PM 37.9031 -77.0919 251° West 147 169 10,100  Level Washington Center
Wed 03:35:00 PM 37.8987 -77.0881 251° West  Level FlightAware Approximate
Wed 03:36:01 PM 37.8878 -77.1519 252° West 165 190 10,100  Level Washington Center
Wed 03:37:01 PM 37.8664 -77.2017 241° Southwest 165 190 10,100  Level Washington Center
Wed 03:37:59 PM 37.8406 -77.2536 238° Southwest 165 190 10,100  Level Washington Center
Wed 03:39:00 PM 37.8150 -77.3006 235° Southwest 171 197 10,100 -50 Level Washington Center
Wed 03:40:00 PM 37.7953 -77.3550 245° Southwest 171 197 10,000 -50 Descending Washington Center
Wed 03:41:01 PM 37.7736 -77.4072 242° Southwest 171 197 10,000  Level Washington Center
Wed 03:41:59 PM 37.7542 -77.4619 246° West 171 197 10,000 51 Level Washington Center
Wed 03:42:59 PM 37.7344 -77.5139 244° Southwest 171 197 10,100  Climbing Washington Center
Wed 03:44:00 PM 37.7169 -77.5661 247° West 171 197 10,000  Descending Washington Center
Wed 03:45:00 PM 37.6994 -77.6181 247° West 171 197 10,100 50 Climbing Washington Center
Wed 03:46:01 PM 37.6797 -77.6700 244° Southwest 171 197 10,100 -50 Level Washington Center
Wed 03:47:01 PM 37.6622 -77.7244 248° West 171 197 10,000 -51 Descending Washington Center
Wed 03:47:59 PM 37.6425 -77.7764 244° Southwest 171 197 10,000  Level Washington Center
Wed 03:49:00 PM 37.6269 -77.8206 246° West 171 197 10,000  Level Washington Center
Wed 03:50:01 PM 37.6094 -77.8700 246° West 171 197 10,000  Level Washington Center
Wed 03:51:01 PM 37.5917 -77.9219 247° West 166 191 10,000  Level Washington Center
Wed 03:51:59 PM 37.5742 -77.9711 246° West 166 191 10,000  Level Washington Center
Wed 03:53:00 PM 37.5564 -78.0256 248° West 166 191 10,000  Level Washington Center
Wed 03:54:01 PM 37.5383 -78.0800 247° West 171 197 10,000  Level Washington Center
Wed 03:55:01 PM 37.5186 -78.1317 244° Southwest 171 197 10,000 50 Level Washington Center
Wed 03:56:00 PM 37.5028 -78.1886 251° West 171 197 10,100 50 Climbing Washington Center
Wed 03:57:00 PM 37.4828 -78.2431 245° Southwest 171 197 10,100 -149 Level Washington Center
Wed 03:58:01 PM 37.4628 -78.3000 246° West 171 197 9,800 -151 Descending Washington Center
Wed 03:58:59 PM 37.4428 -78.3542 245° Southwest 171 197 9,800  Level Washington Center
Wed 04:00:00 PM 37.4247 -78.4083 247° West 171 197 9,800  Level Washington Center
Wed 04:01:01 PM 37.4069 -78.4625 248° West 171 197 9,800 149 Level Washington Center
Wed 04:02:01 PM 37.3889 -78.5142 246° West 171 197 10,100 150 Climbing Washington Center
Wed 04:03:01 PM 37.3731 -78.5606 247° West 171 197 10,100  Level Washington Center
Wed 04:03:59 PM 37.3531 -78.6122 244° Southwest 171 197 10,100  Level Washington Center
Wed 04:05:00 PM 37.3353 -78.6611 245° Southwest 171 197 10,100  Level Washington Center
Wed 04:06:00 PM 37.3128 -78.7150 242° Southwest 171 197 10,100  Level Washington Center
Wed 04:07:01 PM 37.2928 -78.7717 246° West 171 197 10,100  Level Washington Center
Wed 04:08:01 PM 37.2703 -78.8228 241° Southwest 171 197 10,100  Level Washington Center
Wed 04:08:59 PM 37.2544 -78.8744 249° West 171 197 10,100  Level Washington Center
Wed 04:10:00 PM 37.2364 -78.9206 244° Southwest 171 197 10,100  Level Washington Center
Wed 04:11:01 PM 37.2225 -78.9722 251° West 171 197 10,100 50 Level Washington Center
Wed 04:12:01 PM 37.2086 -79.0236 251° West 166 191 10,200  Climbing Washington Center
Wed 04:12:59 PM 37.1861 -79.0722 240° Southwest 166 191 10,100 -50 Descending Washington Center
Wed 04:14:00 PM 37.1658 -79.1286 246° West 166 191 10,100  Level Washington Center
Wed 04:15:01 PM 37.1478 -79.1747 244° Southwest 166 191 10,100  Level Washington Center
Wed 04:15:59 PM 37.1275 -79.2258 244° Southwest 166 191 10,100 51 Level Washington Center
Wed 04:16:59 PM 37.1133 -79.2772 251° West 166 191 10,200  Climbing Washington Center
Wed 04:18:01 PM 37.1119 -79.3242 268° West 160 184 10,100 -49 Descending Washington Center
Wed 04:19:01 PM 37.1019 -79.3758 256° West 160 184 10,100  Level Washington Center
Wed 04:19:59 PM 37.0961 -79.4300 262° West 160 184 10,100  Level Washington Center
Wed 04:21:00 PM 37.0900 -79.4844 262° West 160 184 10,100  Level Washington Center
Wed 04:22:01 PM 37.0881 -79.5469 268° West 160 184 10,100  Level Washington Center
Wed 04:22:59 PM 37.0819 -79.6039 262° West 160 184 10,100  Level Washington Center
Wed 04:24:00 PM 37.0758 -79.6583 262° West 160 184 10,100  Level Washington Center
Wed 04:25:00 PM 37.0719 -79.7153 265° West 160 184 10,100  Level Washington Center
Wed 04:26:01 PM 37.0656 -79.7747 262° West 165 190 10,100  Level Washington Center
Wed 04:28:00 PM 37.0547 -79.8861 263° West  Level FlightAware Approximate
Wed 04:31:32 PM 37.0358 -80.1022 263° West 166 191 10,100  Level Atlanta Center
Wed 04:32:32 PM 37.0314 -80.1597 264° West 161 185 10,100  Level Atlanta Center
Wed 04:33:32 PM 37.0247 -80.2119 261° West 161 185 10,100  Level Atlanta Center
Wed 04:34:32 PM 37.0181 -80.2694 262° West 161 185 10,100  Level Atlanta Center
Wed 04:35:00 PM 37.0157 -80.2789 263° West  Level FlightAware Approximate
Wed 04:35:32 PM 37.0133 -80.3192 263° West 166 191 10,100  Level Atlanta Center
Wed 04:36:00 PM 37.0100 -80.3349 263° West  Level FlightAware Approximate
Wed 04:36:32 PM 37.0086 -80.3714 264° West 161 185 10,100  Level Atlanta Center
Wed 04:37:32 PM 37.0039 -80.4261 264° West 161 185 10,100  Level Atlanta Center
Wed 04:38:32 PM 36.9972 -80.4808 261° West 161 185 10,100  Level Atlanta Center
Wed 04:39:32 PM 36.9928 -80.5436 265° West 161 185 10,100  Level Atlanta Center
Wed 04:40:32 PM 36.9881 -80.6008 264° West 161 185 10,100  Level Atlanta Center
Wed 04:41:32 PM 36.9814 -80.6531 261° West 161 185 10,100  Level Atlanta Center
Wed 04:42:32 PM 36.9531 -80.6881 225° Southwest 155 178 10,100 -50 Level Atlanta Center
Wed 04:43:32 PM 36.9208 -80.7258 223° Southwest 155 178 10,000 -50 Descending Atlanta Center
Wed 04:44:32 PM 36.9075 -80.7836 254° West 165 190 10,000 50 Level Atlanta Center
Wed 04:45:32 PM 36.9028 -80.8383 264° West 165 190 10,100 50 Climbing Atlanta Center
Wed 04:46:32 PM 36.8961 -80.9033 263° West 171 197 10,100  Level Atlanta Center
Wed 04:47:32 PM 36.8850 -80.9608 256° West 171 197 10,100  Level Atlanta Center
Wed 04:48:32 PM 36.8742 -81.0211 257° West 177 204 10,100  Level Atlanta Center
Wed 04:49:32 PM 36.8650 -81.0758 258° West 177 204 10,100  Level Atlanta Center
Wed 04:50:32 PM 36.8536 -81.1281 255° West 177 204 10,100  Level Atlanta Center
Wed 04:51:32 PM 36.8447 -81.1856 259° West 177 204 10,100  Level Atlanta Center
Wed 04:52:32 PM 36.8336 -81.2456 257° West 182 209 10,100  Level Atlanta Center
Wed 04:53:32 PM 36.8225 -81.3083 258° West 182 209 10,100  Level Atlanta Center
Wed 04:54:32 PM 36.8133 -81.3681 259° West 182 209 10,100  Level Atlanta Center
Wed 04:55:32 PM 36.8019 -81.4256 256° West 182 209 10,100  Level Atlanta Center
Wed 04:56:32 PM 36.7928 -81.4828 259° West 182 209 10,100  Level Atlanta Center
Wed 04:57:32 PM 36.7814 -81.5378 256° West 182 209 10,100  Level Atlanta Center
Wed 04:59:32 PM 36.7653 -81.6653 261° West 179 206 10,100  Level Atlanta Center
Wed 05:00:32 PM 36.7539 -81.7225 256° West 179 206 10,100  Level Atlanta Center
Wed 05:01:32 PM 36.7403 -81.7800 254° West 179 206 10,100  Level Atlanta Center
Wed 05:02:32 PM 36.7289 -81.8372 256° West 179 206 10,100  Level Atlanta Center
Wed 05:03:32 PM 36.7172 -81.8944 256° West 179 206 10,100  Level Atlanta Center
Wed 05:04:32 PM 36.7058 -81.9517 256° West 179 206 10,100  Level Atlanta Center
Wed 05:05:32 PM 36.7047 -82.0089 269° West 179 206 10,100  Level Atlanta Center
Wed 05:06:32 PM 36.7014 -82.0658 266° West 179 206 10,100  Level Atlanta Center
Wed 05:07:32 PM 36.6897 -82.1231 256° West 179 206 10,100  Level Atlanta Center
Wed 05:08:32 PM 36.6761 -82.1828 254° West 179 206 10,100  Level Atlanta Center
Wed 05:09:32 PM 36.6667 -82.2425 259° West 184 212 10,100  Level Atlanta Center
Wed 05:10:32 PM 36.6550 -82.2972 255° West 179 206 10,100  Level Atlanta Center
Wed 05:11:32 PM 36.6431 -82.3544 255° West 179 206 10,100  Level Atlanta Center
Wed 05:12:32 PM 36.6272 -82.4064 249° West 168 193 10,100  Level Atlanta Center
Wed 05:13:32 PM 36.6092 -82.4586 247° West 168 193 10,100  Level Atlanta Center
Wed 05:14:32 PM 36.5931 -82.5158 251° West 173 199 10,100  Level Atlanta Center
Wed 05:15:32 PM 36.5833 -82.5728 258° West 173 199 10,100  Level Atlanta Center
Wed 05:16:32 PM 36.5800 -82.6272 266° West 162 186 10,100  Level Atlanta Center
Wed 05:17:32 PM 36.5867 -82.6814 279° West 162 186 10,100  Level Atlanta Center
Wed 05:18:32 PM 36.5894 -82.7356 274° West 162 186 10,100  Level Atlanta Center
Wed 05:19:32 PM 36.5753 -82.7850 250° West 157 181 10,100  Level Atlanta Center
Wed 05:20:32 PM 36.5569 -82.8344 245° Southwest 163 188 10,100  Level Atlanta Center
Wed 05:21:32 PM 36.5367 -82.8864 244° Southwest 163 188 10,100  Level Atlanta Center
Wed 05:22:32 PM 36.5164 -82.9306 240° Southwest 168 193 10,100  Level Atlanta Center
Wed 05:23:32 PM 36.4958 -82.9800 243° Southwest 168 193 10,100  Level Atlanta Center
Wed 05:24:32 PM 36.4753 -83.0267 241° Southwest 163 188 10,100  Level Atlanta Center
Wed 05:25:32 PM 36.4528 -83.0761 241° Southwest 163 188 10,100  Level Atlanta Center
Wed 05:26:32 PM 36.4344 -83.1228 244° Southwest 163 188 10,100  Level Atlanta Center
Wed 05:27:32 PM 36.4119 -83.1719 240° Southwest 163 188 10,100 -50 Level Atlanta Center
Wed 05:28:32 PM 36.3914 -83.2186 241° Southwest 163 188 10,000 -4 Descending Atlanta Center
Wed 05:30:00 PM 36.3597 -83.2905 241° Southwest  Level FlightAware Approximate
Wed 05:37:00 PM 36.2042 -83.6302 240° Southwest  Level FlightAware Approximate
Wed 05:38:00 PM 36.1819 -83.6786 240° Southwest  Level FlightAware Approximate
Wed 05:39:00 PM 36.1596 -83.7270 240° Southwest  Level FlightAware Approximate
Wed 05:40:00 PM 36.1373 -83.7754 240° Southwest  Level FlightAware Approximate
Wed 05:41:00 PM 36.1150 -83.8237 240° Southwest  Level FlightAware Approximate
Wed 05:42:00 PM 36.0926 -83.8721 240° Southwest  Level FlightAware Approximate
Wed 05:43:00 PM 36.0703 -83.9204 240° Southwest  Level FlightAware Approximate
Wed 05:44:00 PM 36.0479 -83.9686 240° Southwest  Level FlightAware Approximate
Wed 05:45:00 PM 36.0258 -84.0171 241° Southwest  Level FlightAware Approximate
Wed 05:46:00 PM 36.0041 -84.0658 241° Southwest  Level FlightAware Approximate
Wed 05:47:00 PM 35.9825 -84.1146 241° Southwest  Level FlightAware Approximate
Wed 05:48:00 PM 35.9608 -84.1633 241° Southwest  Level FlightAware Approximate
Wed 05:49:00 PM 35.9391 -84.2120 241° Southwest  Level FlightAware Approximate
Wed 05:50:00 PM 35.9174 -84.2606 241° Southwest  Level FlightAware Approximate
Wed 05:51:00 PM 35.8957 -84.3092 241° Southwest  Level FlightAware Approximate
Wed 05:51:44 PM 35.8994 -84.3386 241° Southwest 168 193 10,000  Level Atlanta Center
Wed 05:52:00 PM 35.8739 -84.3578 241° Southwest  Level FlightAware Approximate
Wed 05:52:44 PM 35.8764 -84.3872 240° Southwest 163 188 10,000  Level Atlanta Center
Wed 05:53:00 PM 35.8521 -84.4064 241° Southwest  Level FlightAware Approximate
Wed 05:53:44 PM 35.8553 -84.4358 242° Southwest 163 188 10,000  Level Atlanta Center
Wed 05:54:00 PM 35.8303 -84.4550 241° Southwest  Level FlightAware Approximate
Wed 05:54:44 PM 35.8322 -84.4844 240° Southwest 163 188 10,000  Level Atlanta Center
Wed 05:55:00 PM 35.8085 -84.5035 241° Southwest  Level FlightAware Approximate
Wed 05:55:44 PM 35.8111 -84.5331 242° Southwest 163 188 10,000  Level Atlanta Center
Wed 05:56:44 PM 35.7900 -84.5814 242° Southwest 163 188 10,100 50 Climbing Atlanta Center
Wed 05:57:44 PM 35.7711 -84.6247 242° Southwest 163 188 10,100  Level Atlanta Center
Wed 05:58:44 PM 35.7542 -84.6811 250° West 163 188 10,100 -50 Level Atlanta Center
Wed 05:59:44 PM 35.7433 -84.7347 256° West 163 188 10,000  Descending Atlanta Center
Wed 06:00:44 PM 35.7411 -84.7883 267° West 163 188 10,100 50 Climbing Atlanta Center
Wed 06:01:44 PM 35.7364 -84.8447 264° West 163 188 10,100  Level Atlanta Center
Wed 06:02:44 PM 35.7300 -84.9008 262° West 163 188 10,100  Level Atlanta Center
Wed 06:03:44 PM 35.7253 -84.9544 264° West 163 188 10,100  Level Atlanta Center
Wed 06:04:44 PM 35.7164 -85.0133 259° West 163 188 10,100  Level Atlanta Center
Wed 06:06:50 PM 35.7061 -85.1214 263° West 161 185 10,100  Level Memphis Center
Wed 06:07:50 PM 35.7000 -85.1753 262° West 161 185 10,100  Level Memphis Center
Wed 06:08:50 PM 35.6961 -85.2319 265° West 161 185 10,100  Level Memphis Center
Wed 06:09:50 PM 35.7006 -85.2878 276° West 161 185 10,100  Level Memphis Center
Wed 06:10:50 PM 35.7006 -85.3442 270° West 161 185 10,100  Level Memphis Center
Wed 06:11:50 PM 35.6986 -85.3978 267° West 161 185 10,100  Level Memphis Center
Wed 06:12:50 PM 35.6989 -85.4542 270° West 161 185 10,100  Level Memphis Center
Wed 06:13:50 PM 35.6989 -85.5103 270° West 161 185 10,100  Level Memphis Center
Wed 06:14:50 PM 35.7031 -85.5636 276° West 161 185 10,100  Level Memphis Center
Wed 06:15:50 PM 35.7053 -85.6197 273° West 161 185 10,100  Level Memphis Center
Wed 06:16:50 PM 35.6947 -85.6717 256° West 161 185 10,100  Level Memphis Center
Wed 06:17:50 PM 35.6733 -85.7161 239° Southwest 161 185 10,100  Level Memphis Center
Wed 06:18:50 PM 35.6458 -85.7611 233° Southwest 166 191 10,100  Level Memphis Center
Wed 06:19:50 PM 35.6164 -85.8061 231° Southwest 171 197 10,100 -50 Level Memphis Center
Wed 06:20:50 PM 35.5822 -85.8439 222° Southwest 171 197 10,000 -50 Descending Memphis Center
Wed 06:21:50 PM 35.5481 -85.8789 220° Southwest 171 197 10,000  Level Memphis Center
Wed 06:22:50 PM 35.5078 -85.9192 219° Southwest 171 197 10,000  Level Memphis Center
Wed 06:23:50 PM 35.4756 -85.9542 221° Southwest 171 197 10,000  Level Memphis Center
Wed 06:24:50 PM 35.4414 -85.9892 220° Southwest 171 197 10,000  Level Memphis Center
Wed 06:25:50 PM 35.4072 -86.0214 218° Southwest 171 197 10,000  Level Memphis Center
Wed 06:26:50 PM 35.3708 -86.0564 218° Southwest 171 197 10,000  Level Memphis Center
Wed 06:27:50 PM 35.3367 -86.0914 220° Southwest 171 197 10,000  Level Memphis Center
Wed 06:28:50 PM 35.3022 -86.1261 219° Southwest 171 197 10,000  Level Memphis Center
Wed 06:29:50 PM 35.2678 -86.1583 217° Southwest 171 197 10,000 -150 Level Memphis Center
Wed 06:30:50 PM 35.2294 -86.1958 219° Southwest 176 203 9,700 -550 Descending Memphis Center
Wed 06:31:50 PM 35.1911 -86.2358 220° Southwest 187 215 8,900 -800 Descending Memphis Center
Wed 06:32:50 PM 35.1508 -86.2761 219° Southwest 197 227 8,100 -900 Descending Memphis Center
Wed 06:33:50 PM 35.1106 -86.3161 219° Southwest 202 232 7,100 -950 Descending Memphis Center
Wed 06:34:50 PM 35.0681 -86.3586 219° Southwest 202 232 6,200 -1,550 Descending Memphis Center
Wed 06:35:50 PM 35.0256 -86.3986 218° Southwest 202 232 4,000 -1,100 Descending Memphis Center
Wed 06:36:50 PM 34.9831 -86.4414 220° Southwest 202 232 4,000 -50 Level Memphis Center
Wed 06:37:50 PM 34.9425 -86.4761 215° Southwest 197 227 3,900  Descending Memphis Center
Wed 06:38:50 PM 34.8981 -86.5236 221° Southwest 197 227 4,000 50 Climbing Memphis Center
Wed 06:39:50 PM 34.8617 -86.5633 222° Southwest 197 227 4,000  Level Memphis Center
Wed 06:40:50 PM 34.8233 -86.6031 220° Southwest 197 227 4,000  Level Memphis Center
Wed 06:41:50 PM 34.7828 -86.6428 219° Southwest 197 227 4,000  Level Memphis Center
Wed 06:43:50 PM 34.7828 -86.6428 141° Southeast 197 227 4,000  Level Memphis Center
Wed 06:45:50 PM 34.7828 -86.6428 141° Southeast 197 227 4,000  Level Memphis Center
Wed 06:48:00 PM 34.8177 -86.5946 49° Northeast  Level FlightAware Approximate
Wed 06:55:00 PM 34.8500 -86.5500 39° Northeast  Level FlightAware Approximate
Wed 06:56:00 PM 34.8614 -86.5575 39° Northeast  Level Estimated
Wed 06:57:00 PM 34.8614 -86.5575 39° Northeast  Level Estimated
Wed 06:58:00 PM 34.8614 -86.5575 39° Northeast  Level Estimated

Login

Don't have an account? Register now (free) for customized features, flight alerts, and more!